»·PEaware :: N332PR KPDX-KEUG

N332PR :: KPDX-KEUG

FLIGHT INFORMATION

Flight Status: Arrived
Operator: Privately registered:
United States
More flights under this callsign
Pilot: Tanner C. (11250)
Aircraft: SOCATA TBM-900
(TBM9)
More flights by this aircraft type
Origin: KPDX Portland Intl
United States
Destination: KEUG Mahlon Sweet
United States
More flights between these airports :: More routes between these airports
Route: +PTLD1 UBG V495 CVO V481 EUG
File this flight plan on PilotEdge
Remarks:
Altitude:
(Current/Filed)
12,000ft
Speed:
(Current/Filed)
250kts
Departed: 26-Dec-18 10:25 AM
Arrived: 26-Dec-18 11:14 AM
Distance/Time
Traveled:
92nm/0:49
Distance/Time
To Go:
Arrived

Flight Plot

Page will automatically refresh every two minutes.

Flight plan parsing failed; only flown route is shown


Map Options




Map Legend


Flown Route
Filed Route
Departure Airport
Arrival Airport
Navaid (VOR, NDB)
Fix

Horizontal Profiles

Position Reports

Time Latitude Longitude Heading Altitude Ground
Speed
26-Dec-18 09:57 45.587994 -122.584818 212 32ft 0kts
26-Dec-18 09:58 45.587994 -122.584818 212 32ft 0kts
26-Dec-18 09:59 45.587994 -122.584818 212 32ft 0kts
26-Dec-18 10:00 45.587994 -122.584818 212 32ft 0kts
26-Dec-18 10:01 45.587994 -122.584818 212 32ft 0kts
26-Dec-18 10:02 45.587994 -122.584818 212 32ft 0kts
26-Dec-18 10:03 45.587994 -122.584818 212 32ft 0kts
26-Dec-18 10:04 45.587994 -122.584818 212 32ft 0kts
26-Dec-18 10:05 45.587994 -122.584818 212 32ft 0kts
26-Dec-18 10:06 45.587994 -122.584818 212 32ft 0kts
26-Dec-18 10:07 45.587994 -122.584818 212 32ft 0kts
26-Dec-18 10:08 45.587994 -122.584818 212 32ft 0kts
26-Dec-18 10:09 45.587994 -122.584818 212 32ft 0kts
26-Dec-18 10:10 45.587994 -122.584818 212 32ft 0kts
26-Dec-18 10:11 45.587994 -122.584818 212 32ft 0kts
26-Dec-18 10:12 45.587994 -122.584818 212 32ft 0kts
26-Dec-18 10:13 45.587994 -122.584818 212 32ft 0kts
26-Dec-18 10:14 45.587994 -122.584818 212 32ft 0kts
26-Dec-18 10:15 45.587994 -122.584818 212 32ft 0kts
26-Dec-18 10:16 45.587994 -122.584818 212 32ft 0kts
26-Dec-18 10:17 45.588022 -122.584873 24 32ft 0kts
26-Dec-18 10:18 45.588490 -122.584928 306 32ft 9kts
26-Dec-18 10:19 45.588142 -122.582757 11 32ft 17kts
26-Dec-18 10:20 45.591773 -122.591042 298 32ft 28kts
26-Dec-18 10:21 45.594028 -122.596697 301 32ft 3kts
26-Dec-18 10:22 45.594311 -122.597357 36 32ft 0kts
26-Dec-18 10:23 45.594479 -122.597181 36 32ft 6kts
26-Dec-18 10:24 45.587110 -122.575845 116 333ft 137kts
26-Dec-18 10:25 45.566817 -122.525197 117 2226ft 157kts
26-Dec-18 10:26 45.552441 -122.490873 117 3784ft 141kts
26-Dec-18 10:27 45.541861 -122.461135 117 5122ft 135kts
26-Dec-18 10:28 45.522874 -122.458290 231 6225ft 157kts
26-Dec-18 10:29 45.511435 -122.500156 240 8084ft 143kts
26-Dec-18 10:30 45.497913 -122.541075 244 9601ft 146kts
26-Dec-18 10:31 45.483951 -122.583679 244 10999ft 148kts
26-Dec-18 10:32 45.471249 -122.622303 244 12000ft 158kts
26-Dec-18 10:33 45.457485 -122.664043 244 12009ft 191kts
26-Dec-18 10:34 45.441285 -122.713093 244 12001ft 210kts
26-Dec-18 10:35 45.423883 -122.765670 244 11998ft 223kts
26-Dec-18 10:36 45.404921 -122.822898 244 11989ft 216kts
26-Dec-18 10:37 45.391435 -122.863498 244 11977ft 215kts
26-Dec-18 10:38 45.377617 -122.905028 244 11965ft 214kts
26-Dec-18 10:39 45.363435 -122.947582 244 11964ft 213kts
26-Dec-18 10:40 45.341096 -122.980719 203 11982ft 222kts
26-Dec-18 10:41 45.308881 -122.994285 201 11965ft 225kts
26-Dec-18 10:42 45.276451 -123.006800 201 11964ft 226kts
26-Dec-18 10:43 45.243414 -123.019252 201 11963ft 226kts
26-Dec-18 10:44 45.210541 -123.031552 201 11963ft 226kts
26-Dec-18 10:45 45.177581 -123.043862 201 11962ft 226kts
26-Dec-18 10:46 45.141653 -123.057257 201 11962ft 226kts
26-Dec-18 10:47 45.105516 -123.070710 201 11962ft 226kts
26-Dec-18 10:48 45.071463 -123.083372 201 11962ft 226kts
26-Dec-18 10:49 45.039138 -123.095373 201 11962ft 226kts
26-Dec-18 10:50 45.006912 -123.107323 201 11961ft 226kts
26-Dec-18 10:51 44.972890 -123.119928 201 11917ft 228kts
26-Dec-18 10:52 44.933031 -123.134693 200 11299ft 244kts
26-Dec-18 10:53 44.894085 -123.149071 200 10714ft 249kts
26-Dec-18 10:54 44.857170 -123.162687 200 10172ft 250kts
26-Dec-18 10:55 44.818349 -123.176973 200 9915ft 241kts
26-Dec-18 10:56 44.781131 -123.190668 200 9915ft 233kts
26-Dec-18 10:57 44.742869 -123.204723 200 9917ft 230kts
26-Dec-18 10:58 44.703619 -123.219138 200 9639ft 239kts
26-Dec-18 10:59 44.659482 -123.235274 199 8985ft 248kts
26-Dec-18 11:00 44.617051 -123.248214 184 8241ft 235kts
26-Dec-18 11:01 44.570001 -123.244303 184 7313ft 220kts
26-Dec-18 11:02 44.527031 -123.238059 185 6438ft 216kts
26-Dec-18 11:03 44.482618 -123.236596 195 5523ft 207kts
26-Dec-18 11:04 44.442242 -123.243898 195 4654ft 202kts
26-Dec-18 11:05 44.400201 -123.236777 155 3951ft 171kts
26-Dec-18 11:06 44.358851 -123.223875 187 3990ft 185kts
26-Dec-18 11:07 44.306753 -123.222506 187 3591ft 206kts
26-Dec-18 11:08 44.254252 -123.221289 182 2615ft 179kts
26-Dec-18 11:09 44.215288 -123.220479 178 1911ft 118kts
26-Dec-18 11:10 44.183919 -123.219868 176 1323ft 114kts
26-Dec-18 11:11 44.155615 -123.219395 177 884ft 95kts
26-Dec-18 11:12 44.130206 -123.219055 180 360ft 69kts
26-Dec-18 11:13 44.125135 -123.217604 148 362ft 10kts
26-Dec-18 11:14 44.120996 -123.213996 103 365ft 12kts
26-Dec-18 11:15 44.121356 -123.212635 34 365ft 0kts
26-Dec-18 11:16 44.121356 -123.212635 34 365ft 0kts
26-Dec-18 11:17 44.121356 -123.212635 34 365ft 0kts
26-Dec-18 11:18 44.121355 -123.212635 34 365ft 0kts
26-Dec-18 11:19 44.121355 -123.212635 34 365ft 0kts
26-Dec-18 11:20 44.121355 -123.212635 34 365ft 0kts

Navigation Log

Ident Type
Flight plan parsing failed, navigation log unavailable